Time;durP1;ratioP1;P1;durP2;ratioP2;P2;SDS_P1;SDS_P2;PMS_P1;PMS_P2;Temp;Humidity;BMP_temperature;BMP_pressure;BME280_temperature;BME280_humidity;BME280_pressure;Samples;Min_cycle;Max_cycle;Signal;HPM_P1;HPM_P2
2021/10/30 00:02:20;;;;;;;24.35;16.85;;;;;;;4.86;68.67;100112.11;1739200;82;20974;-82
2021/10/30 00:04:47;;;;;;;24.80;16.02;;;;;;;4.75;68.51;100113.98;1740716;80;21072;-83
2021/10/30 00:07:15;;;;;;;31.25;18.95;;;;;;;4.65;68.87;100114.08;1784221;80;21001;-83
2021/10/30 00:09:42;;;;;;;26.35;16.02;;;;;;;4.58;69.03;100116.63;1783843;80;21048;-83
2021/10/30 00:12:10;;;;;;;24.12;15.35;;;;;;;4.52;69.03;100124.31;1780400;80;21013;-83
2021/10/30 00:14:38;;;;;;;28.40;15.50;;;;;;;4.46;69.12;100131.15;1739480;82;21026;-83
2021/10/30 00:17:05;;;;;;;25.00;15.72;;;;;;;4.42;69.37;100121.78;1739689;82;21001;-83
2021/10/30 00:19:33;;;;;;;24.55;15.08;;;;;;;4.37;69.27;100121.16;1753402;81;20994;-83
2021/10/30 00:22:00;;;;;;;23.38;15.13;;;;;;;4.33;69.46;100128.30;1778233;81;21014;-82
2021/10/30 00:24:27;;;;;;;23.70;15.90;;;;;;;4.32;69.42;100130.54;1776940;81;21024;-83
2021/10/30 00:26:54;;;;;;;19.30;14.05;;;;;;;4.30;69.89;100130.23;1775293;81;20943;-82
2021/10/30 00:29:21;;;;;;;21.95;14.07;;;;;;;4.27;69.92;100129.91;1768930;81;21025;-83
2021/10/30 00:31:48;;;;;;;19.52;14.28;;;;;;;4.24;70.02;100135.28;1768428;81;21033;-82
2021/10/30 00:34:15;;;;;;;21.95;12.85;;;;;;;4.25;69.97;100131.77;1769041;81;21478;-82
2021/10/30 00:36:42;;;;;;;18.67;13.53;;;;;;;4.24;70.08;100124.84;1768670;81;20986;-82
2021/10/30 00:39:09;;;;;;;20.90;12.73;;;;;;;4.21;69.93;100120.64;1768763;81;21053;-82
2021/10/30 00:41:36;;;;;;;19.90;14.03;;;;;;;4.19;69.95;100121.63;1768749;81;21014;-82
2021/10/30 00:44:11;;;;;;;20.82;14.47;;;;;;;4.13;70.12;100121.45;1768623;81;20939;-82
2021/10/30 00:46:43;;;;;;;21.50;14.15;;;;;;;4.11;70.36;100121.14;1768801;81;21033;-83
2021/10/30 00:49:12;;;;;;;23.10;13.45;;;;;;;4.07;70.04;100120.91;1768393;80;20997;-83
2021/10/30 00:51:43;;;;;;;21.57;12.82;;;;;;;4.00;70.17;100134.27;1763565;81;21057;-83
2021/10/30 00:54:13;;;;;;;21.52;14.75;;;;;;;3.97;70.42;100129.66;1763685;81;21018;-83
2021/10/30 00:56:42;;;;;;;24.05;15.40;;;;;;;3.93;70.32;100122.90;1763423;81;20986;-83
2021/10/30 00:59:14;;;;;;;22.80;14.90;;;;;;;3.90;70.65;100125.66;1753100;81;21005;-83
2021/10/30 01:01:44;;;;;;;26.15;17.17;;;;;;;3.88;70.89;100125.74;1747891;82;21010;-83
2021/10/30 01:04:11;;;;;;;23.27;14.45;;;;;;;3.86;71.04;100128.03;1748200;82;21072;-83
2021/10/30 01:06:43;;;;;;;28.60;16.55;;;;;;;3.86;71.13;100131.95;1747856;82;21064;-83
2021/10/30 01:09:10;;;;;;;25.45;15.58;;;;;;;3.81;71.23;100128.70;1754532;81;20990;-83
2021/10/30 01:11:41;;;;;;;28.12;16.70;;;;;;;3.86;71.50;100135.86;1771346;80;20978;-83
2021/10/30 01:14:08;;;;;;;28.50;16.45;;;;;;;3.87;71.64;100137.08;1776059;81;21002;-83
2021/10/30 01:16:35;;;;;;;25.57;15.48;;;;;;;3.86;71.63;100138.01;1778918;81;21013;-83
2021/10/30 01:19:02;;;;;;;20.00;14.25;;;;;;;3.86;71.92;100135.86;1778535;80;21020;-83
2021/10/30 01:21:33;;;;;;;23.00;15.90;;;;;;;3.83;71.63;100132.09;1778834;81;21044;-83
2021/10/30 01:24:02;;;;;;;24.87;15.03;;;;;;;3.81;71.47;100134.76;1753597;81;20989;-83
2021/10/30 01:26:30;;;;;;;24.80;15.43;;;;;;;3.78;71.81;100128.84;1747788;82;21542;-83
2021/10/30 01:29:00;;;;;;;23.60;15.80;;;;;;;3.74;71.69;100128.98;1748928;81;21443;-83
2021/10/30 01:31:27;;;;;;;22.73;14.25;;;;;;;3.72;71.56;100137.83;1748361;80;21068;-83
2021/10/30 01:33:54;;;;;;;22.37;14.98;;;;;;;3.69;71.86;100135.36;1748245;82;21009;-83
2021/10/30 01:36:22;;;;;;;23.80;15.50;;;;;;;3.66;71.44;100123.77;1747783;82;21520;-83
2021/10/30 01:38:50;;;;;;;25.43;14.85;;;;;;;3.66;71.92;100127.67;1749360;81;20987;-83
2021/10/30 01:41:24;;;;;;;22.77;14.73;;;;;;;3.63;71.69;100125.21;1773885;81;20985;-83
2021/10/30 01:43:53;;;;;;;22.48;14.40;;;;;;;3.62;71.53;100126.11;1776948;81;21033;-83
2021/10/30 01:46:20;;;;;;;23.15;13.85;;;;;;;3.58;71.76;100118.88;1778772;81;21061;-83
2021/10/30 01:48:48;;;;;;;25.25;14.30;;;;;;;3.56;71.56;100115.98;1778760;81;21027;-83
2021/10/30 01:51:16;;;;;;;24.55;15.50;;;;;;;3.53;71.71;100114.36;1767168;81;20966;-83
2021/10/30 01:53:45;;;;;;;32.83;17.10;;;;;;;3.51;71.91;100109.20;1763488;81;21041;-83
2021/10/30 01:56:12;;;;;;;23.07;14.13;;;;;;;3.49;71.81;100107.13;1763498;81;21021;-83
2021/10/30 01:58:39;;;;;;;28.32;16.57;;;;;;;3.45;71.97;100105.56;1778078;80;20962;-83
2021/10/30 02:01:08;;;;;;;36.35;20.85;;;;;;;3.44;72.18;100103.05;1747587;81;20994;-83
2021/10/30 02:03:36;;;;;;;29.02;17.55;;;;;;;3.40;72.17;100099.73;1770677;80;20993;-83
2021/10/30 02:06:05;;;;;;;33.45;20.35;;;;;;;3.37;72.06;100099.88;1778151;81;20993;-83
2021/10/30 02:08:32;;;;;;;28.60;18.30;;;;;;;3.34;72.24;100093.49;1778958;81;21001;-82
2021/10/30 02:11:01;;;;;;;34.08;19.20;;;;;;;3.32;72.43;100090.56;1778475;80;20986;-83
2021/10/30 02:13:29;;;;;;;26.55;17.95;;;;;;;3.30;72.62;100090.65;1759132;81;21004;-83
2021/10/30 02:15:56;;;;;;;27.95;17.23;;;;;;;3.29;72.69;100092.41;1778816;81;20989;-83
2021/10/30 02:18:23;;;;;;;34.73;17.57;;;;;;;3.29;73.32;100090.23;1710749;82;21019;-83
2021/10/30 02:20:50;;;;;;;32.67;18.87;;;;;;;3.29;73.54;100092.84;1748271;82;21048;-83
2021/10/30 02:23:19;;;;;;;34.95;22.00;;;;;;;3.30;73.46;100094.56;1747974;82;21599;-83
2021/10/30 02:25:46;;;;;;;33.70;18.15;;;;;;;3.29;73.59;100095.02;1747657;82;21038;-83
2021/10/30 02:28:13;;;;;;;29.63;17.75;;;;;;;3.31;73.27;100094.94;1748110;82;21041;-83
2021/10/30 02:30:40;;;;;;;27.20;17.05;;;;;;;3.32;73.25;100097.92;1766076;81;21021;-83
2021/10/30 02:33:07;;;;;;;26.97;17.65;;;;;;;3.34;73.33;100093.95;1779012;81;21346;-83
2021/10/30 02:35:34;;;;;;;27.13;16.97;;;;;;;3.32;73.17;100091.41;1778362;81;21029;-83
2021/10/30 02:38:02;;;;;;;24.72;15.30;;;;;;;3.29;73.39;100084.59;1762713;80;21005;-83
2021/10/30 02:40:29;;;;;;;23.90;15.85;;;;;;;3.30;73.63;100078.91;1747773;82;20994;-83
2021/10/30 02:42:56;;;;;;;25.90;15.98;;;;;;;3.28;73.36;100078.13;1765032;80;21001;-83
2021/10/30 02:45:23;;;;;;;23.05;15.10;;;;;;;3.26;73.50;100075.60;1748049;82;21539;-83
2021/10/30 02:47:50;;;;;;;26.33;16.37;;;;;;;3.24;73.53;100076.12;1747826;82;21004;-83
2021/10/30 02:50:17;;;;;;;29.90;17.42;;;;;;;3.25;73.71;100071.75;1748659;81;20977;-83
2021/10/30 02:52:44;;;;;;;25.85;16.35;;;;;;;3.26;74.26;100073.00;1748145;81;21041;-83
2021/10/30 02:55:11;;;;;;;24.30;15.65;;;;;;;3.28;74.08;100072.45;1747978;82;21018;-83
2021/10/30 02:57:48;;;;;;;25.30;15.90;;;;;;;3.29;73.91;100075.46;1757612;81;21021;-83
2021/10/30 03:00:16;;;;;;;22.98;16.10;;;;;;;3.29;74.07;100079.80;1778584;81;21436;-83
2021/10/30 03:02:43;;;;;;;27.95;15.08;;;;;;;3.28;74.04;100086.79;1779034;81;20989;-83
2021/10/30 03:05:10;;;;;;;24.30;15.80;;;;;;;3.31;74.26;100086.27;1778486;81;21069;-83
2021/10/30 03:07:38;;;;;;;25.08;15.00;;;;;;;3.31;74.27;100082.36;1754756;81;21040;-83
2021/10/30 03:10:06;;;;;;;22.75;15.10;;;;;;;3.32;74.32;100086.19;1747946;82;21061;-83
2021/10/30 03:12:33;;;;;;;21.10;14.55;;;;;;;3.32;74.48;100078.83;1769338;81;20938;-83
2021/10/30 03:15:00;;;;;;;22.02;14.20;;;;;;;3.28;74.16;100079.43;1779009;81;21520;-83
2021/10/30 03:17:27;;;;;;;27.55;15.60;;;;;;;3.24;74.07;100086.55;1778488;81;21044;-83
2021/10/30 03:19:54;;;;;;;25.05;14.45;;;;;;;3.18;74.04;100082.08;1778837;81;21013;-83
2021/10/30 03:22:21;;;;;;;23.92;13.90;;;;;;;3.14;74.10;100070.95;1778472;81;21002;-83
2021/10/30 03:24:48;;;;;;;24.45;15.08;;;;;;;3.12;74.15;100074.06;1779007;81;21574;-83
2021/10/30 03:27:15;;;;;;;27.17;16.10;;;;;;;3.08;74.24;100073.83;1778657;81;21466;-83
2021/10/30 03:29:42;;;;;;;25.40;16.00;;;;;;;3.06;74.30;100075.68;1778663;81;21060;-83
2021/10/30 03:32:09;;;;;;;22.05;15.78;;;;;;;3.00;74.11;100078.09;1778767;81;21044;-83
2021/10/30 03:34:36;;;;;;;22.13;14.28;;;;;;;2.93;74.05;100079.72;1778641;81;21009;-83
2021/10/30 03:37:03;;;;;;;25.27;16.20;;;;;;;2.85;74.27;100083.14;1769975;80;21582;-83
2021/10/30 03:39:30;;;;;;;27.58;16.45;;;;;;;2.76;74.11;100084.39;1739436;82;21318;-83
2021/10/30 03:41:57;;;;;;;24.98;16.97;;;;;;;2.74;74.51;100083.63;1739433;81;21006;-83
2021/10/30 03:44:24;;;;;;;26.70;16.60;;;;;;;2.71;74.49;100080.70;1739923;82;21036;-83
2021/10/30 03:46:51;;;;;;;26.95;17.12;;;;;;;2.69;74.39;100080.37;1751680;81;20982;-83
2021/10/30 03:49:18;;;;;;;25.37;16.73;;;;;;;2.67;74.62;100080.91;1748137;82;21485;-83
2021/10/30 03:51:45;;;;;;;25.25;15.70;;;;;;;2.64;74.48;100083.19;1747574;82;21101;-83
2021/10/30 03:54:12;;;;;;;28.77;16.67;;;;;;;2.62;74.42;100078.95;1712406;83;21021;-83
2021/10/30 03:56:39;;;;;;;25.57;15.00;;;;;;;2.59;74.49;100081.23;1712057;84;21496;-83
2021/10/30 03:59:06;;;;;;;24.52;15.70;;;;;;;2.55;74.58;100079.21;1776163;81;21492;-83
2021/10/30 04:01:33;;;;;;;22.22;15.28;;;;;;;2.55;74.73;100073.16;1778858;81;21043;-83
2021/10/30 04:04:00;;;;;;;22.90;15.08;;;;;;;2.53;74.52;100074.97;1755244;81;21076;-83
2021/10/30 04:06:27;;;;;;;18.82;11.90;;;;;;;2.51;74.68;100067.70;1751993;82;20975;-83
2021/10/30 04:08:54;;;;;;;21.02;13.45;;;;;;;2.48;74.76;100063.47;1758307;81;22471;-83
2021/10/30 04:11:21;;;;;;;22.70;12.88;;;;;;;2.47;74.81;100065.69;1755371;81;21519;-83
2021/10/30 04:13:48;;;;;;;17.77;12.85;;;;;;;2.47;74.96;100059.61;1749307;81;21009;-83
2021/10/30 04:16:16;;;;;;;21.40;13.93;;;;;;;2.45;75.15;100058.84;1753308;82;21022;-82
2021/10/30 04:18:44;;;;;;;25.90;14.83;;;;;;;2.45;75.45;100059.69;1753550;82;21108;-83
2021/10/30 04:21:12;;;;;;;50.17;31.75;;;;;;;2.45;75.31;100053.18;1773553;81;21056;-83
2021/10/30 04:23:40;;;;;;;99.28;57.30;;;;;;;2.47;75.40;100054.41;1778858;81;21009;-83
2021/10/30 04:26:08;;;;;;;83.85;49.65;;;;;;;2.49;75.51;100061.70;1778507;81;21001;-83
2021/10/30 04:28:36;;;;;;;80.05;45.73;;;;;;;2.50;75.48;100057.75;1766120;80;21507;-83
2021/10/30 04:31:05;;;;;;;80.72;46.95;;;;;;;2.53;75.71;100056.74;1751380;81;21406;-82
2021/10/30 04:33:32;;;;;;;78.92;47.55;;;;;;;2.54;75.69;100055.39;1740993;82;21050;-83
2021/10/30 04:36:02;;;;;;;61.02;35.92;;;;;;;2.55;75.38;100045.35;1741714;82;21005;-83
2021/10/30 04:38:28;;;;;;;56.65;33.45;;;;;;;2.55;75.34;100045.81;1753247;81;21520;-83
2021/10/30 04:40:56;;;;;;;53.90;31.90;;;;;;;2.57;75.52;100049.20;1763251;81;21026;-82
2021/10/30 04:43:22;;;;;;;48.55;28.00;;;;;;;2.56;75.43;100050.94;1763736;81;20951;-83
2021/10/30 04:45:49;;;;;;;37.80;23.10;;;;;;;2.55;75.24;100045.81;1763134;81;21033;-83
2021/10/30 04:48:17;;;;;;;28.75;20.00;;;;;;;2.55;75.60;100045.35;1763842;81;21472;-83
2021/10/30 04:50:44;;;;;;;30.90;19.98;;;;;;;2.57;75.73;100053.11;1763604;80;21600;-83
2021/10/30 04:53:12;;;;;;;33.45;20.80;;;;;;;2.58;76.10;100046.98;1763662;81;21006;-83
2021/10/30 04:55:39;;;;;;;42.20;29.87;;;;;;;2.58;75.83;100048.28;1763337;81;21544;-83
2021/10/30 04:58:06;;;;;;;65.67;40.25;;;;;;;2.54;75.74;100036.31;1774047;80;20954;-83
2021/10/30 05:00:33;;;;;;;57.85;35.75;;;;;;;2.51;76.26;100037.28;1784109;80;21017;-82
2021/10/30 05:03:00;;;;;;;50.00;32.20;;;;;;;2.49;76.06;100043.01;1784258;80;20981;-83
2021/10/30 05:05:27;;;;;;;47.62;31.10;;;;;;;2.46;76.23;100044.44;1774102;80;21072;-83
2021/10/30 05:07:54;;;;;;;46.33;27.93;;;;;;;2.42;76.18;100046.80;1753674;81;20981;-83
2021/10/30 05:10:21;;;;;;;41.28;27.93;;;;;;;2.39;75.98;100038.27;1747861;82;20997;-83
2021/10/30 05:12:48;;;;;;;43.80;28.23;;;;;;;2.35;76.10;100032.36;1748233;82;21053;-83
2021/10/30 05:15:15;;;;;;;39.78;25.15;;;;;;;2.30;76.05;100031.27;1748810;81;21001;-83
2021/10/30 05:17:42;;;;;;;35.28;23.25;;;;;;;2.28;76.00;100030.94;1774021;80;20997;-83
2021/10/30 05:20:11;;;;;;;37.40;25.92;;;;;;;2.25;75.99;100027.16;1768543;81;20980;-82
2021/10/30 05:22:37;;;;;;;36.23;22.37;;;;;;;2.20;75.99;100027.34;1746362;82;21498;-83
2021/10/30 05:25:05;;;;;;;34.98;23.80;;;;;;;2.18;76.41;100019.23;1776768;81;21038;-83
2021/10/30 05:27:32;;;;;;;33.67;22.80;;;;;;;2.15;76.43;100030.61;1778429;81;21057;-83
2021/10/30 05:29:59;;;;;;;33.00;22.13;;;;;;;2.10;76.31;100032.55;1774890;81;21021;-83
2021/10/30 05:32:26;;;;;;;32.23;21.85;;;;;;;2.08;76.52;100028.72;1763259;81;21034;-83
2021/10/30 05:34:53;;;;;;;33.65;21.30;;;;;;;2.07;76.58;100023.56;1763814;81;21421;-83
2021/10/30 05:37:20;;;;;;;29.67;20.52;;;;;;;2.03;76.44;100022.86;1763373;81;21022;-83
2021/10/30 05:39:47;;;;;;;31.05;21.30;;;;;;;2.01;76.77;100025.16;1763681;81;20973;-83
2021/10/30 05:42:16;;;;;;;27.48;20.43;;;;;;;1.99;76.63;100031.70;1763732;81;20974;-83
2021/10/30 05:44:44;;;;;;;27.35;19.17;;;;;;;1.99;76.53;100036.91;1773261;80;20963;-83
2021/10/30 05:47:11;;;;;;;31.20;19.90;;;;;;;1.96;76.76;100028.39;1784402;80;20978;-83
2021/10/30 05:49:41;;;;;;;29.37;19.75;;;;;;;1.95;76.65;100037.12;1784122;80;21002;-83
2021/10/30 05:52:09;;;;;;;28.07;18.77;;;;;;;1.96;76.84;100036.20;1748290;82;21520;-83
2021/10/30 05:54:38;;;;;;;23.02;15.93;;;;;;;1.93;77.12;100029.36;1748018;82;21013;-83
2021/10/30 05:57:08;;;;;;;29.10;18.30;;;;;;;1.94;77.43;100028.47;1749252;81;20991;-83
2021/10/30 05:59:35;;;;;;;25.70;17.70;;;;;;;1.97;77.52;100031.38;1779156;81;20986;-83
2021/10/30 06:02:02;;;;;;;21.17;14.85;;;;;;;1.98;77.34;100040.44;1778671;81;21493;-83
2021/10/30 06:04:29;;;;;;;22.93;15.65;;;;;;;2.01;77.54;100032.97;1779092;81;21483;-83
2021/10/30 06:06:56;;;;;;;26.15;14.95;;;;;;;2.01;77.26;100031.66;1778646;81;21032;-83
2021/10/30 06:09:23;;;;;;;25.17;17.23;;;;;;;2.02;77.58;100036.78;1779043;81;21047;-83
2021/10/30 06:11:49;;;;;;;24.80;17.05;;;;;;;2.01;77.82;100028.59;1751806;80;20993;-82
2021/10/30 06:14:17;;;;;;;32.70;19.55;;;;;;;2.02;77.60;100034.64;1777357;81;21041;-83
2021/10/30 06:16:44;;;;;;;39.00;23.40;;;;;;;2.02;78.05;100032.88;1778947;81;21368;-83
2021/10/30 06:19:11;;;;;;;45.67;26.95;;;;;;;2.05;77.79;100028.85;1778480;81;21677;-83
2021/10/30 06:21:38;;;;;;;43.65;26.52;;;;;;;2.07;78.24;100032.68;1778996;81;21295;-83
2021/10/30 06:24:05;;;;;;;29.90;21.68;;;;;;;2.11;78.41;100031.20;1779058;81;21033;-83
2021/10/30 06:26:32;;;;;;;31.07;20.82;;;;;;;2.15;78.50;100028.47;1778572;80;21538;-83
2021/10/30 06:28:59;;;;;;;34.88;22.60;;;;;;;2.22;79.17;100035.10;1779114;81;21049;-83
2021/10/30 06:31:26;;;;;;;35.78;22.58;;;;;;;2.28;79.29;100027.88;1776742;80;20950;-83
2021/10/30 06:33:53;;;;;;;38.73;21.75;;;;;;;2.34;78.74;100030.67;1779329;81;21032;-83
2021/10/30 06:36:20;;;;;;;35.60;20.88;;;;;;;2.37;79.05;100029.67;1778602;81;21029;-83
2021/10/30 06:38:50;;;;;;;36.50;18.85;;;;;;;2.41;79.25;100032.09;1778921;81;21037;-83
2021/10/30 06:41:17;;;;;;;31.52;19.23;;;;;;;2.47;79.33;100042.25;1778972;81;21013;-82
2021/10/30 06:43:44;;;;;;;32.08;17.85;;;;;;;2.54;79.50;100041.52;1778885;81;21013;-83
2021/10/30 06:46:11;;;;;;;29.65;18.80;;;;;;;2.61;79.74;100041.64;1779049;81;21496;-83
2021/10/30 06:48:38;;;;;;;29.20;19.70;;;;;;;2.69;79.86;100047.34;1778742;81;21669;-83
2021/10/30 06:51:09;;;;;;;36.38;21.90;;;;;;;2.77;80.04;100049.63;1757148;80;21034;-83
2021/10/30 06:53:35;;;;;;;45.45;25.68;;;;;;;2.85;79.94;100045.36;1739496;82;21093;-82
2021/10/30 06:56:02;;;;;;;52.67;28.62;;;;;;;2.94;79.96;100039.73;1739534;82;20994;-82
2021/10/30 06:58:30;;;;;;;35.10;21.55;;;;;;;3.02;80.14;100045.42;1765524;81;21444;-83
2021/10/30 07:00:57;;;;;;;32.70;21.20;;;;;;;3.11;80.29;100044.17;1757368;81;21048;-83
2021/10/30 07:03:25;;;;;;;29.72;17.70;;;;;;;3.23;80.37;100035.79;1740654;81;21029;-83
2021/10/30 07:05:52;;;;;;;27.65;16.15;;;;;;;3.33;80.52;100034.89;1773460;81;20997;-83
2021/10/30 07:08:19;;;;;;;23.90;13.75;;;;;;;3.47;80.75;100026.78;1774010;80;21039;-83
2021/10/30 07:10:46;;;;;;;23.45;15.15;;;;;;;3.64;80.78;100024.66;1773934;80;20990;-83
2021/10/30 07:13:13;;;;;;;20.35;15.25;;;;;;;3.80;80.75;100020.00;1773772;80;21025;-83
2021/10/30 07:15:40;;;;;;;18.55;14.10;;;;;;;3.94;80.76;100021.45;1773914;80;20994;-83
2021/10/30 07:18:07;;;;;;;23.05;13.62;;;;;;;4.11;80.67;100024.05;1772325;80;20945;-83
2021/10/30 07:20:34;;;;;;;23.52;13.68;;;;;;;4.26;80.58;100021.61;1763498;81;21511;-83
2021/10/30 07:23:01;;;;;;;23.83;13.93;;;;;;;4.37;80.35;100019.27;1763637;81;21022;-83
2021/10/30 07:25:28;;;;;;;25.60;14.65;;;;;;;4.46;80.32;100018.33;1763337;81;20982;-83
2021/10/30 07:27:55;;;;;;;21.90;15.48;;;;;;;4.59;80.30;100016.39;1763973;81;20991;-83
2021/10/30 07:30:24;;;;;;;21.57;14.43;;;;;;;4.68;80.13;100020.67;1763205;81;20982;-83
2021/10/30 07:32:54;;;;;;;23.85;14.60;;;;;;;4.79;80.25;100018.78;1763813;81;21033;-83
2021/10/30 07:35:23;;;;;;;21.48;13.30;;;;;;;4.89;80.11;100016.52;1763748;80;21030;-83
2021/10/30 07:37:57;;;;;;;20.55;13.15;;;;;;;5.01;80.08;100019.78;1765591;80;21103;-83
2021/10/30 07:40:20;;;;;;;19.73;12.35;;;;;;;5.13;80.13;100013.89;1777812;80;21053;-83
2021/10/30 07:42:47;;;;;;;18.67;11.33;;;;;;;5.26;80.02;100005.34;1778705;81;20997;-83
2021/10/30 07:45:14;;;;;;;16.93;12.47;;;;;;;5.41;79.95;100005.80;1769725;80;21058;-83
2021/10/30 07:47:41;;;;;;;20.88;13.15;;;;;;;5.57;79.67;100004.48;1763349;81;21050;-84
2021/10/30 07:50:09;;;;;;;16.25;11.53;;;;;;;5.73;79.62;100011.00;1777945;80;21001;-84
2021/10/30 07:52:36;;;;;;;16.15;11.15;;;;;;;5.88;79.35;100003.55;1778505;81;21044;-86
2021/10/30 07:55:03;;;;;;;18.50;11.95;;;;;;;6.03;79.02;100008.40;1763660;80;21024;-83
2021/10/30 07:57:30;;;;;;;16.48;10.48;;;;;;;6.20;78.45;100001.69;1754735;81;21440;-88
2021/10/30 07:59:57;;;;;;;18.73;11.90;;;;;;;6.37;78.20;100000.67;1765890;80;20994;-87
2021/10/30 08:02:24;;;;;;;17.02;11.65;;;;;;;6.51;78.09;99999.36;1758648;80;20969;-88
2021/10/30 08:04:51;;;;;;;18.90;12.47;;;;;;;6.62;77.88;100001.34;1779285;80;21020;-88
2021/10/30 08:07:18;;;;;;;16.55;11.95;;;;;;;6.72;77.84;99997.69;1754991;80;21001;-88
2021/10/30 08:09:45;;;;;;;21.10;11.93;;;;;;;6.85;77.67;99992.05;1761811;81;21458;-83
2021/10/30 08:12:14;;;;;;;17.35;11.50;;;;;;;7.00;77.36;99991.08;1749285;80;21017;-87
2021/10/30 08:14:42;;;;;;;19.52;11.28;;;;;;;7.17;77.31;99991.78;1766378;81;21439;-87
2021/10/30 08:17:10;;;;;;;17.35;11.38;;;;;;;7.32;77.00;99984.73;1747602;82;21479;-87
2021/10/30 08:19:37;;;;;;;22.95;13.53;;;;;;;7.44;76.76;99976.06;1748003;82;21447;-88
2021/10/30 08:22:05;;;;;;;19.77;13.25;;;;;;;7.57;76.52;99973.02;1747066;81;21440;-87
2021/10/30 08:24:32;;;;;;;24.23;14.90;;;;;;;7.73;76.20;99969.74;1768785;80;20994;-87
2021/10/30 08:26:58;;;;;;;35.03;19.77;;;;;;;7.86;76.27;99964.96;1768639;81;21087;-86
2021/10/30 08:29:27;;;;;;;26.00;15.75;;;;;;;7.99;76.10;99962.74;1768567;81;20986;-87
2021/10/30 08:31:54;;;;;;;28.60;17.73;;;;;;;8.18;76.00;99957.53;1701650;84;20986;-86
2021/10/30 08:34:21;;;;;;;24.72;16.85;;;;;;;8.38;75.85;99959.66;1701279;84;21054;-83
2021/10/30 08:36:48;;;;;;;27.98;14.45;;;;;;;8.60;75.70;99956.86;1701617;84;21509;-83
2021/10/30 08:39:15;;;;;;;21.85;14.07;;;;;;;8.81;74.93;99957.95;1710980;84;20978;-87
2021/10/30 08:41:42;;;;;;;26.87;15.03;;;;;;;9.02;74.72;99957.40;1702167;83;21001;-87
2021/10/30 08:44:09;;;;;;;24.07;13.48;;;;;;;9.22;74.80;99958.11;1708804;83;20990;-85
2021/10/30 08:46:38;;;;;;;21.30;14.73;;;;;;;9.42;73.94;99954.50;1695483;84;21025;-83
2021/10/30 08:49:09;;;;;;;21.37;13.25;;;;;;;9.59;73.51;99954.91;1686219;84;20971;-85
2021/10/30 08:51:34;;;;;;;17.42;12.88;;;;;;;9.76;72.83;99951.50;1684179;85;21081;-87
2021/10/30 08:54:01;;;;;;;21.33;14.10;;;;;;;9.92;72.62;99954.66;1684888;85;21073;-87
2021/10/30 08:56:28;;;;;;;21.93;14.25;;;;;;;10.08;72.06;99951.22;1684722;84;21057;-85
2021/10/30 08:58:56;;;;;;;18.35;12.03;;;;;;;10.23;71.54;99948.35;1697840;84;21009;-86
2021/10/30 09:01:23;;;;;;;26.07;12.70;;;;;;;10.38;71.58;99943.25;1696694;84;21571;-87
2021/10/30 09:04:01;;;;;;;17.42;12.10;;;;;;;10.53;71.51;99942.55;1696592;84;21019;-87
2021/10/30 09:06:34;;;;;;;20.50;13.95;;;;;;;10.69;71.48;99939.03;1696647;84;21094;-84
2021/10/30 09:09:17;;;;;;;22.52;14.30;;;;;;;10.88;71.65;99937.58;1694695;84;21523;-88
2021/10/30 09:11:56;;;;;;;21.70;13.68;;;;;;;11.03;70.56;99927.95;1701854;83;20986;-86
2021/10/30 09:14:27;;;;;;;23.50;13.22;;;;;;;11.20;69.97;99930.55;1694302;84;21006;-87
2021/10/30 09:17:20;;;;;;;17.62;10.85;;;;;;;11.37;70.38;99921.72;1691900;84;21006;-88
2021/10/30 09:19:52;;;;;;;;;;;;;;;11.55;69.79;99920.22;1704649;84;20971;-86
2021/10/30 09:22:22;;;;;;;28.20;13.15;;;;;;;11.73;68.87;99916.02;1693769;84;20159;-87
2021/10/30 09:24:58;;;;;;;19.48;11.88;;;;;;;11.91;69.01;99908.84;1703841;84;21695;-86
2021/10/30 09:27:50;;;;;;;18.73;12.10;;;;;;;12.07;68.94;99906.58;1684759;85;21515;-86
2021/10/30 09:30:22;;;;;;;18.82;12.00;;;;;;;12.23;67.66;99898.66;1685105;85;20988;-86
2021/10/30 09:33:05;;;;;;;19.00;11.60;;;;;;;12.39;67.04;99900.33;1687475;84;21476;-86
2021/10/30 09:35:42;;;;;;;18.32;12.78;;;;;;;12.54;67.63;99900.82;1688133;84;21066;-87
2021/10/30 09:38:35;;;;;;;13.90;10.13;;;;;;;12.71;67.20;99904.14;1699176;83;21046;-86
2021/10/30 09:41:24;;;;;;;16.12;10.88;;;;;;;12.88;66.52;99901.31;1696763;83;21535;-87
2021/10/30 09:44:06;;;;;;;15.95;10.98;;;;;;;13.07;65.62;99893.89;1715400;83;21010;-87
2021/10/30 09:46:37;;;;;;;14.45;11.00;;;;;;;13.22;65.43;99891.66;1706314;83;21511;-87
2021/10/30 09:49:36;;;;;;;15.85;10.50;;;;;;;13.37;65.54;99890.31;1704247;83;21519;-86
2021/10/30 09:52:11;;;;;;;18.70;10.10;;;;;;;13.48;64.15;99886.67;1704084;83;21029;-86
2021/10/30 09:54:43;;;;;;;14.55;10.55;;;;;;;13.57;63.47;99878.71;1697955;83;21471;-87
2021/10/30 09:57:29;;;;;;;16.77;10.38;;;;;;;13.69;63.38;99883.84;1702347;83;21492;-87
2021/10/30 10:00:02;;;;;;;16.12;9.78;;;;;;;13.83;63.22;99876.79;1711252;83;21018;-86
2021/10/30 10:02:30;;;;;;;;;;;;;;;13.96;63.28;99872.01;1701385;84;21682;-88
2021/10/30 10:05:02;;;;;;;14.70;9.73;;;;;;;14.10;62.60;99869.38;1686111;83;20390;-88
2021/10/30 10:07:32;;;;;;;10.88;9.13;;;;;;;14.22;62.41;99872.70;1684166;84;21037;-86
2021/10/30 10:10:00;;;;;;;13.62;9.08;;;;;;;14.36;62.04;99867.40;1684665;84;21073;-82
2021/10/30 10:12:29;;;;;;;18.10;14.30;;;;;;;14.46;61.97;99860.22;1748020;82;20987;-82
2021/10/30 10:14:57;;;;;;;18.60;14.40;;;;;;;14.58;61.56;99860.88;1749085;80;21621;-79
2021/10/30 10:17:24;;;;;;;14.00;9.28;;;;;;;14.70;61.14;99845.91;1794408;80;20980;-79
2021/10/30 10:19:52;;;;;;;15.32;9.28;;;;;;;14.82;60.93;99839.91;1793945;80;21428;-77
2021/10/30 10:22:19;;;;;;;19.52;12.10;;;;;;;14.94;60.87;99833.89;1781980;80;20989;-79
2021/10/30 10:24:46;;;;;;;16.10;10.18;;;;;;;15.06;60.29;99834.48;1757069;81;20986;-79
2021/10/30 10:27:13;;;;;;;13.10;9.73;;;;;;;15.15;59.97;99821.62;1759538;80;21002;-79
2021/10/30 10:29:44;;;;;;;12.82;9.20;;;;;;;15.28;60.38;99816.75;1748180;81;21551;-79
2021/10/30 10:32:21;;;;;;;13.38;8.00;;;;;;;15.43;59.57;99816.55;1747123;80;20986;-87
2021/10/30 10:34:49;;;;;;;12.28;8.00;;;;;;;15.56;58.94;99812.63;1748065;81;20998;-88
2021/10/30 10:37:23;;;;;;;15.18;10.03;;;;;;;15.68;58.28;99796.28;1753929;80;21019;-86
2021/10/30 10:39:57;;;;;;;14.83;9.20;;;;;;;15.80;58.26;99790.22;1747658;80;20973;-88
2021/10/30 10:42:43;;;;;;;13.38;8.30;;;;;;;15.93;57.83;99780.47;1760121;80;21029;-89
2021/10/30 10:45:16;;;;;;;14.15;8.50;;;;;;;16.07;57.21;99785.19;1794094;80;21087;-87
2021/10/30 10:47:50;;;;;;;11.70;8.73;;;;;;;16.20;57.17;99775.92;1792600;80;21155;-84
2021/10/30 10:50:35;;;;;;;15.00;9.73;;;;;;;16.32;56.76;99766.63;1793433;80;21036;-84
2021/10/30 10:53:15;;;;;;;13.72;9.25;;;;;;;16.44;56.20;99762.67;1752098;80;20996;-87
2021/10/30 10:55:56;;;;;;;13.50;9.23;;;;;;;16.55;56.12;99758.39;1747111;81;21030;-87
2021/10/30 10:58:23;;;;;;;14.10;8.93;;;;;;;16.68;55.66;99749.06;1748316;81;20974;-88
2021/10/30 11:01:04;;;;;;;13.30;9.03;;;;;;;16.76;55.07;99743.28;1747608;82;21040;-86
2021/10/30 11:03:41;;;;;;;11.25;7.55;;;;;;;16.85;54.75;99738.30;1747655;80;21018;-85
2021/10/30 11:06:08;;;;;;;12.58;8.38;;;;;;;16.94;54.83;99744.95;1747887;80;21001;-84
2021/10/30 11:08:35;;;;;;;12.25;8.08;;;;;;;17.02;53.17;99743.63;1781433;80;21541;-87
2021/10/30 11:11:23;;;;;;;10.78;7.90;;;;;;;17.09;52.87;99735.30;1794586;80;21059;-85
2021/10/30 11:14:01;;;;;;;12.00;7.95;;;;;;;17.16;52.33;99738.12;1793075;80;21087;-85
2021/10/30 11:16:32;;;;;;;9.73;7.72;;;;;;;17.21;51.86;99728.63;1793658;80;21466;-87
2021/10/30 11:19:20;;;;;;;11.12;7.80;;;;;;;17.27;52.24;99724.44;1778763;80;21619;-87
2021/10/30 11:21:53;;;;;;;15.85;9.23;;;;;;;17.35;51.54;99729.77;1759062;80;21006;-85
2021/10/30 11:24:25;;;;;;;17.05;8.20;;;;;;;17.39;51.14;99719.59;1764392;80;21589;-86
2021/10/30 11:27:01;;;;;;;11.03;7.70;;;;;;;17.42;51.02;99716.59;1747302;82;21572;-86
2021/10/30 11:29:29;;;;;;;10.78;8.35;;;;;;;17.31;50.65;99685.28;1766246;80;21550;-84